Airfield :
LOGIN :

Register | Disclaimer

   EN    FR    IT 

 










Legend :    VFR   Marginal VFR   IFR   Intensive IFR   Very Intensive IFR
Visi :
Ceiling :
>= 8 km
>= 3000ft
5 to 8 km
1000 to 3000 ft
1500m to 5 km
500 to 1000 ft
800 to 1500m
200 to 500 ft
< 800m
< 200 ft
Symbols :   Thunderstorms  Fog  Heavy snow  Heavy precipitations  Wind > 20 kt
SIGMETs :     Misc.  Thunderstorms  Icing  Turbulence  Mountain Waves  Volcanic Ashes







- Airport Elevation : 408 ft
- IATA code : FKB


EDSB - Karlsruhe Baden Baden

CURRENT METAR :
  • 211720Z VRB03KT CAVOK 16/11 Q1018

EXPIRED METARs :
  • 211650Z 34003KT CAVOK 17/10 Q1018
  • 211620Z 36004KT CAVOK 18/10 Q1018
  • 211550Z 36004KT CAVOK 19/10 Q1018
  • 211520Z 36004KT 300V030 CAVOK 19/11 Q1019
  • 211450Z 01006KT CAVOK 19/11 Q1019

TAF TAF EDSB
Valid from the 21 at 18:00 until the 22 at 18:00 UTC


211700Z 2118/2218 VRB03KT CAVOK
BECMG 2123/2202 2500 BR
TEMPO 2202/2208 0200 FG BKN001
BECMG 2207/2210 9999
BECMG 2208/2210 23005KT
No reported NOTAMs for that airfield.



MET'MAP, your aeronautical weather chart ! - Copyright ORBIFLY December 2007 - Disclaimer

ORBIFLY MET'MAP TEAM :

Programming & Development : Alexandra Zaïnal
Concept & Development : Baudouin d'Aumeries
Co-Development & Prog : Marc-Olivier Méhu
Technical & hardware support : Manuel Goepfert

Contact : metmap@orbifly.com




SOURCES & CREDITS :

   NOAA